createdAt,value
2018-09-15T00:02:09.340Z,13.25
2018-09-15T00:04:37.944Z,13.21
2018-09-15T00:07:07.071Z,13.24
2018-09-15T00:09:36.609Z,13.05
2018-09-15T00:12:05.084Z,12.55
2018-09-15T00:14:33.990Z,12.58
2018-09-15T00:17:02.566Z,12.87
2018-09-15T00:19:31.082Z,12.88
2018-09-15T00:21:59.569Z,12.90
2018-09-15T00:24:28.043Z,12.82
2018-09-15T00:26:56.647Z,12.62
2018-09-15T00:29:25.146Z,12.58
2018-09-15T00:31:54.829Z,12.55
2018-09-15T00:34:23.360Z,12.40
2018-09-15T00:36:52.687Z,12.18
2018-09-15T00:39:21.192Z,12.20
2018-09-15T00:41:50.233Z,12.23
2018-09-15T00:44:18.692Z,12.21
2018-09-15T00:46:47.876Z,12.23
2018-09-15T00:49:17.105Z,12.16
2018-09-15T00:51:45.667Z,12.20
2018-09-15T00:54:14.312Z,12.08
2018-09-15T00:56:43.569Z,11.87
2018-09-15T00:59:14.874Z,11.92
2018-09-15T01:01:43.408Z,11.92
2018-09-15T01:04:11.887Z,11.81
2018-09-15T01:06:40.416Z,11.91
2018-09-15T01:09:09.839Z,11.99
2018-09-15T01:11:38.489Z,12.10
2018-09-15T01:14:07.416Z,11.86
2018-09-15T01:16:37.404Z,11.91
2018-09-15T01:19:06.137Z,12.00
2018-09-15T01:21:35.007Z,11.75
2018-09-15T01:24:03.533Z,11.74
2018-09-15T01:26:32.039Z,11.73
2018-09-15T01:29:00.574Z,11.63
2018-09-15T01:31:29.594Z,11.57
2018-09-15T01:33:58.055Z,11.35
2018-09-15T01:36:26.540Z,11.38
2018-09-15T01:38:56.288Z,11.56
2018-09-15T01:41:24.798Z,11.13
2018-09-15T01:43:53.415Z,11.13
2018-09-15T01:46:22.033Z,10.93
2018-09-15T01:48:50.616Z,11.14
2018-09-15T01:51:20.655Z,11.09
2018-09-15T01:53:49.273Z,10.87
2018-09-15T01:56:17.735Z,10.82
2018-09-15T01:58:46.823Z,10.73
2018-09-15T02:01:15.320Z,10.91
2018-09-15T02:03:43.783Z,11.06
2018-09-15T02:06:12.273Z,10.99
2018-09-15T02:08:40.734Z,11.13
2018-09-15T02:11:09.219Z,11.16
2018-09-15T02:13:37.647Z,11.19
2018-09-15T02:16:06.282Z,11.24
2018-09-15T02:18:34.816Z,10.95
2018-09-15T02:21:06.476Z,10.88
2018-09-15T02:23:35.077Z,11.02
2018-09-15T02:26:03.553Z,10.92
2018-09-15T02:28:32.065Z,10.80
2018-09-15T02:31:00.554Z,11.01
2018-09-15T02:33:29.004Z,11.11
2018-09-15T02:35:57.538Z,11.09
2018-09-15T02:38:26.532Z,11.07
2018-09-15T02:40:55.044Z,11.05
2018-09-15T02:43:23.580Z,10.73
2018-09-15T02:45:52.041Z,10.92
2018-09-15T02:48:20.554Z,10.95
2018-09-15T02:50:49.136Z,11.11
2018-09-15T02:53:17.574Z,11.13
2018-09-15T02:55:46.058Z,11.12
2018-09-15T02:58:14.531Z,11.20
2018-09-15T03:00:43.077Z,10.98
2018-09-15T03:03:11.584Z,10.69
2018-09-15T03:05:40.089Z,10.69
2018-09-15T03:08:08.592Z,10.83
2018-09-15T03:10:37.799Z,10.62
2018-09-15T03:13:06.865Z,10.66
2018-09-15T03:15:35.511Z,10.58
2018-09-15T03:18:04.025Z,10.26
2018-09-15T03:20:32.615Z,10.28
2018-09-15T03:23:01.130Z,10.23
2018-09-15T03:25:29.663Z,10.39
2018-09-15T03:27:58.215Z,10.28
2018-09-15T03:30:26.755Z,10.19
2018-09-15T03:32:55.808Z,10.20
2018-09-15T03:35:24.499Z,10.27
2018-09-15T03:37:53.020Z,10.29
2018-09-15T03:40:21.668Z,10.24
2018-09-15T03:42:50.237Z,10.33
2018-09-15T03:45:18.668Z,10.45
2018-09-15T03:47:47.166Z,10.58
2018-09-15T03:50:15.681Z,10.43
2018-09-15T03:52:44.269Z,10.08
2018-09-15T03:55:12.720Z,10.14
2018-09-15T03:57:41.203Z,9.70
2018-09-15T04:00:10.361Z,9.65
2018-09-15T04:02:38.902Z,10.00
2018-09-15T04:05:07.414Z,10.25
2018-09-15T04:09:05.043Z,10.31
2018-09-15T04:11:33.528Z,10.18
2018-09-15T04:14:02.525Z,10.13
2018-09-15T04:16:31.458Z,10.06
2018-09-15T04:18:59.970Z,9.93
2018-09-15T04:21:28.525Z,9.93
2018-09-15T04:23:57.058Z,9.54
2018-09-15T04:26:26.027Z,9.71
2018-09-15T04:28:55.271Z,9.83
2018-09-15T04:31:23.691Z,9.82
2018-09-15T04:33:52.836Z,9.88
2018-09-15T04:36:21.335Z,9.88
2018-09-15T04:38:51.367Z,9.88
2018-09-15T04:41:19.870Z,9.93
2018-09-15T04:43:48.392Z,9.90
2018-09-15T04:46:16.798Z,9.89
2018-09-15T04:48:45.368Z,9.40
2018-09-15T04:51:13.856Z,9.66
2018-09-15T04:53:42.327Z,9.72
2018-09-15T04:56:11.501Z,9.72
2018-09-15T04:58:40.142Z,9.64
2018-09-15T05:01:08.668Z,9.64
2018-09-15T05:03:37.253Z,9.63
2018-09-15T05:06:05.755Z,9.59
2018-09-15T05:08:34.895Z,9.60
2018-09-15T05:11:03.430Z,9.51
2018-09-15T05:13:31.920Z,9.46
2018-09-15T05:16:01.149Z,9.43
2018-09-15T05:18:29.633Z,9.56
2018-09-15T05:20:58.077Z,9.38
2018-09-15T05:23:26.558Z,9.32
2018-09-15T05:25:55.049Z,9.54
2018-09-15T05:28:23.529Z,9.25
2018-09-15T05:30:51.976Z,9.74
2018-09-15T05:33:20.493Z,9.63
2018-09-15T05:35:49.026Z,9.85
2018-09-15T05:38:17.563Z,10.18
2018-09-15T05:40:46.118Z,10.38
2018-09-15T05:43:16.056Z,10.26
2018-09-15T05:45:45.206Z,10.19
2018-09-15T05:48:13.915Z,10.27
2018-09-15T05:50:42.635Z,10.26
2018-09-15T05:53:11.147Z,10.34
2018-09-15T05:55:39.630Z,10.64
2018-09-15T05:58:08.535Z,10.25
2018-09-15T06:00:37.189Z,10.02
2018-09-15T06:03:05.580Z,10.42
2018-09-15T06:05:34.036Z,10.46
2018-09-15T06:08:02.596Z,9.80
2018-09-15T06:10:31.066Z,10.32
2018-09-15T06:12:59.580Z,10.10
2018-09-15T06:15:28.070Z,10.06
2018-09-15T06:17:56.608Z,10.52
2018-09-15T06:20:26.662Z,10.76
2018-09-15T06:22:55.245Z,11.13
2018-09-15T06:25:23.717Z,10.94
2018-09-15T06:27:52.280Z,11.11
2018-09-15T06:30:21.100Z,10.93
2018-09-15T06:32:49.731Z,11.64
2018-09-15T06:35:18.308Z,11.45
2018-09-15T06:37:46.922Z,11.20
2018-09-15T06:40:15.404Z,11.17
2018-09-15T06:42:43.927Z,11.63
2018-09-15T06:45:12.715Z,12.02
2018-09-15T06:47:41.242Z,11.58
2018-09-15T06:50:09.799Z,11.73
2018-09-15T06:52:38.328Z,12.45
2018-09-15T06:55:06.884Z,12.87
2018-09-15T06:57:35.418Z,12.63
2018-09-15T07:00:04.234Z,12.96
2018-09-15T07:02:32.728Z,13.04
2018-09-15T07:05:01.208Z,13.18
2018-09-15T07:07:29.665Z,13.32
2018-09-15T07:09:58.981Z,13.87
2018-09-15T07:12:27.442Z,14.32
2018-09-15T07:14:55.926Z,14.28
2018-09-15T07:17:24.390Z,14.36
2018-09-15T07:19:53.074Z,14.18
2018-09-15T07:22:21.555Z,14.84
2018-09-15T07:24:50.739Z,15.89
2018-09-15T07:27:19.212Z,16.97
2018-09-15T07:29:47.666Z,16.18
2018-09-15T07:32:16.230Z,15.66
2018-09-15T07:34:44.756Z,16.14
2018-09-15T07:37:13.247Z,16.01
2018-09-15T07:39:43.074Z,16.10
2018-09-15T07:42:11.575Z,16.85
2018-09-15T07:44:40.147Z,16.80
2018-09-15T07:47:08.606Z,18.09
2018-09-15T07:49:37.126Z,18.91
2018-09-15T07:52:05.619Z,17.64
2018-09-15T07:54:34.157Z,19.05
2018-09-15T07:57:03.149Z,18.30
2018-09-15T07:59:31.740Z,18.31
2018-09-15T08:02:00.323Z,18.40
2018-09-15T08:04:28.839Z,18.78
2018-09-15T08:06:57.960Z,18.09
2018-09-15T08:09:26.519Z,19.11
2018-09-15T08:11:55.146Z,18.84
2018-09-15T08:14:23.839Z,18.81
2018-09-15T08:16:52.367Z,19.50
2018-09-15T08:19:20.943Z,19.88
2018-09-15T08:21:50.875Z,21.58
2018-09-15T08:24:19.438Z,21.11
2018-09-15T08:26:48.550Z,22.10
2018-09-15T08:29:17.173Z,21.77
2018-09-15T08:31:46.188Z,20.94
2018-09-15T08:34:15.719Z,22.28
2018-09-15T08:36:44.359Z,21.69
2018-09-15T08:39:12.980Z,22.92
2018-09-15T08:41:41.577Z,22.31
2018-09-15T08:44:11.308Z,23.23
2018-09-15T08:46:41.537Z,23.85
2018-09-15T08:49:10.268Z,23.89
2018-09-15T08:51:38.910Z,22.12
2018-09-15T08:54:07.478Z,22.97
2018-09-15T08:56:36.008Z,23.75
2018-09-15T08:59:04.547Z,23.92
2018-09-15T09:01:34.092Z,21.71
2018-09-15T09:04:02.939Z,21.52
2018-09-15T09:06:31.624Z,23.64
2018-09-15T09:09:00.102Z,23.80
2018-09-15T09:11:28.616Z,23.64
2018-09-15T09:13:57.184Z,23.10
2018-09-15T09:16:26.717Z,23.91
2018-09-15T09:18:55.360Z,23.89
2018-09-15T09:21:23.916Z,22.40
2018-09-15T09:23:52.523Z,24.08
2018-09-15T09:26:21.251Z,23.36
2018-09-15T09:28:49.853Z,24.79
2018-09-15T09:31:18.433Z,23.23
2018-09-15T09:33:46.908Z,22.48
2018-09-15T09:36:15.465Z,21.58
2018-09-15T09:38:44.104Z,20.20
2018-09-15T09:41:12.660Z,21.58
2018-09-15T09:43:41.224Z,21.16
2018-09-15T09:46:10.308Z,21.61
2018-09-15T09:48:38.887Z,22.60
2018-09-15T09:51:07.988Z,22.18
2018-09-15T09:53:37.095Z,23.75
2018-09-15T09:56:05.673Z,24.01
2018-09-15T09:58:35.730Z,24.26
2018-09-15T10:01:09.517Z,23.30
2018-09-15T10:03:37.964Z,23.86
2018-09-15T10:06:06.555Z,24.50
2018-09-15T10:08:36.239Z,23.81
2018-09-15T10:11:05.748Z,21.63
2018-09-15T10:13:34.252Z,22.37
2018-09-15T10:16:02.941Z,22.79
2018-09-15T10:18:31.828Z,23.46
2018-09-15T10:21:00.516Z,22.61
2018-09-15T10:23:29.684Z,22.60
2018-09-15T10:25:58.283Z,22.76
2018-09-15T10:28:26.827Z,22.48
2018-09-15T10:30:55.435Z,22.66
2018-09-15T10:33:23.975Z,22.43
2018-09-15T10:35:52.528Z,23.91
2018-09-15T10:38:21.412Z,24.65
2018-09-15T10:40:50.168Z,24.82
2018-09-15T10:43:18.881Z,23.69
2018-09-15T10:45:47.478Z,23.01
2018-09-15T10:48:16.594Z,24.16
2018-09-15T10:50:45.183Z,23.47
2018-09-15T10:53:13.672Z,24.00
2018-09-15T10:55:42.448Z,22.76
2018-09-15T10:58:13.055Z,22.05
2018-09-15T11:00:41.548Z,21.58
2018-09-15T11:03:10.723Z,21.75
2018-09-15T11:05:39.268Z,23.76
2018-09-15T11:08:08.671Z,23.44
2018-09-15T11:10:37.193Z,23.31
2018-09-15T11:13:06.364Z,24.09
2018-09-15T11:18:02.513Z,23.87
2018-09-15T11:20:31.028Z,24.20
2018-09-15T11:22:59.702Z,23.81
2018-09-15T11:25:29.440Z,23.46
2018-09-15T11:27:58.047Z,22.41
2018-09-15T11:30:27.676Z,22.27
2018-09-15T11:32:56.256Z,22.40
2018-09-15T11:35:24.805Z,22.90
2018-09-15T11:37:53.399Z,23.06
2018-09-15T11:40:21.952Z,22.38
2018-09-15T11:42:51.105Z,22.27
2018-09-15T11:45:20.308Z,22.25
2018-09-15T11:47:48.985Z,22.49
2018-09-15T11:50:17.552Z,22.96
2018-09-15T11:52:46.100Z,22.42
2018-09-15T11:55:15.130Z,22.84
2018-09-15T11:57:44.185Z,22.67
2018-09-15T12:00:12.712Z,22.71
2018-09-15T12:02:41.412Z,21.83
2018-09-15T12:05:10.435Z,22.49
2018-09-15T12:07:40.104Z,22.54
2018-09-15T12:10:09.379Z,22.75
2018-09-15T12:12:37.986Z,22.96
2018-09-15T12:15:07.143Z,22.62
2018-09-15T12:17:35.670Z,22.18
2018-09-15T12:20:05.127Z,22.52
2018-09-15T12:22:34.497Z,23.38
2018-09-15T12:25:03.620Z,23.71
2018-09-15T12:27:32.194Z,24.68
2018-09-15T12:30:00.708Z,24.82
2018-09-15T12:32:29.267Z,23.53
2018-09-15T12:34:57.825Z,23.07
2018-09-15T12:37:27.499Z,23.28
2018-09-15T12:39:56.089Z,24.07
2018-09-15T12:42:24.748Z,23.63
2018-09-15T12:44:53.852Z,23.71
2018-09-15T12:47:22.952Z,23.15
2018-09-15T12:49:52.007Z,24.49
2018-09-15T12:52:20.596Z,24.92
2018-09-15T12:54:49.022Z,24.83
2018-09-15T12:57:17.606Z,24.99
2018-09-15T12:59:46.125Z,25.03
2018-09-15T13:02:15.678Z,22.87
2018-09-15T13:04:44.189Z,22.69
2018-09-15T13:07:12.662Z,23.06
2018-09-15T13:09:41.268Z,22.73
2018-09-15T13:12:10.368Z,22.95
2018-09-15T13:14:40.201Z,23.86
2018-09-15T13:17:09.781Z,24.57
2018-09-15T13:19:38.522Z,24.64
2018-09-15T13:22:07.335Z,24.62
2018-09-15T13:24:35.939Z,24.67
2018-09-15T13:27:04.468Z,24.93
2018-09-15T13:29:33.061Z,25.70
2018-09-15T13:32:01.703Z,26.11
2018-09-15T13:34:30.896Z,25.76
2018-09-15T13:36:59.381Z,24.75
2018-09-15T13:39:29.499Z,25.56
2018-09-15T13:41:58.120Z,25.04
2018-09-15T13:44:26.843Z,24.21
2018-09-15T13:46:56.913Z,24.47
2018-09-15T13:49:25.510Z,23.74
2018-09-15T13:51:54.082Z,23.94
2018-09-15T13:54:22.684Z,22.86
2018-09-15T13:56:51.239Z,22.16
2018-09-15T13:59:20.225Z,22.83
2018-09-15T14:01:48.760Z,22.64
2018-09-15T14:04:17.353Z,22.98
2018-09-15T14:06:45.938Z,22.97
2018-09-15T14:09:15.834Z,22.16
2018-09-15T14:11:44.410Z,22.06
2018-09-15T14:14:13.851Z,22.40
2018-09-15T14:16:42.378Z,22.54
2018-09-15T14:19:10.861Z,22.87
2018-09-15T14:21:39.360Z,22.67
2018-09-15T14:24:08.466Z,23.42
2018-09-15T14:26:37.200Z,23.80
2018-09-15T14:29:05.826Z,22.28
2018-09-15T14:31:34.372Z,21.80
2018-09-15T14:34:02.998Z,21.65
2018-09-15T14:36:31.598Z,21.97
2018-09-15T14:39:00.245Z,21.48
2018-09-15T14:41:28.886Z,21.31
2018-09-15T14:43:58.231Z,21.53
2018-09-15T14:46:26.844Z,21.14
2018-09-15T14:48:55.727Z,21.32
2018-09-15T14:51:24.751Z,21.20
2018-09-15T14:53:53.323Z,20.95
2018-09-15T14:56:22.433Z,20.68
2018-09-15T14:58:50.975Z,20.98
2018-09-15T15:01:19.454Z,21.36
2018-09-15T15:03:48.337Z,21.50
2018-09-15T15:06:17.435Z,21.45
2018-09-15T15:08:45.941Z,21.60
2018-09-15T15:11:14.969Z,21.30
2018-09-15T15:13:44.194Z,21.01
2018-09-15T15:16:12.706Z,21.04
2018-09-15T15:18:41.261Z,20.64
2018-09-15T15:21:10.350Z,20.79
2018-09-15T15:23:38.975Z,20.71
2018-09-15T15:26:08.447Z,20.91
2018-09-15T15:28:37.655Z,20.86
2018-09-15T15:31:07.602Z,20.87
2018-09-15T15:33:36.274Z,21.08
2018-09-15T15:36:05.384Z,20.92
2018-09-15T15:38:34.086Z,20.66
2018-09-15T15:41:03.224Z,20.88
2018-09-15T15:43:31.832Z,20.63
2018-09-15T15:46:00.952Z,20.51
2018-09-15T15:48:30.286Z,20.53
2018-09-15T15:50:59.033Z,20.23
2018-09-15T15:53:29.064Z,20.12
2018-09-15T15:55:58.537Z,20.36
2018-09-15T15:58:27.831Z,20.28
2018-09-15T16:00:57.362Z,20.45
2018-09-15T16:03:26.033Z,20.66
2018-09-15T16:05:56.401Z,20.62
2018-09-15T16:08:24.979Z,20.72
2018-09-15T16:10:53.504Z,20.90
2018-09-15T16:13:22.671Z,21.01
2018-09-15T16:15:51.939Z,20.95
2018-09-15T16:18:20.560Z,20.76
2018-09-15T16:20:49.128Z,20.83
2018-09-15T16:23:17.569Z,20.93
2018-09-15T16:25:47.027Z,20.99
2018-09-15T16:28:15.637Z,20.73
2018-09-15T16:30:44.224Z,20.69
2018-09-15T16:33:12.724Z,20.58
2018-09-15T16:35:42.526Z,20.39
2018-09-15T16:38:11.808Z,20.33
2018-09-15T16:40:40.475Z,20.31
2018-09-15T16:43:08.953Z,20.04
2018-09-15T16:45:38.580Z,19.87
2018-09-15T16:48:07.187Z,19.67
2018-09-15T16:50:35.724Z,19.62
2018-09-15T16:53:04.817Z,19.50
2018-09-15T16:55:34.403Z,19.46
2018-09-15T16:58:03.019Z,19.39
2018-09-15T17:00:31.744Z,19.27
2018-09-15T17:03:01.256Z,19.08
2018-09-15T17:05:30.247Z,18.64
2018-09-15T17:07:59.787Z,18.52
2018-09-15T17:10:28.384Z,18.66
2018-09-15T17:12:57.132Z,18.74
2018-09-15T17:15:25.856Z,18.71
2018-09-15T17:17:55.681Z,18.58
2018-09-15T17:20:24.249Z,18.64
2018-09-15T17:22:52.885Z,18.55
2018-09-15T17:25:22.055Z,18.30
2018-09-15T17:27:50.813Z,18.06
2018-09-15T17:30:20.049Z,18.07
2018-09-15T17:32:49.307Z,18.10
2018-09-15T17:35:18.639Z,17.95
2018-09-15T17:37:47.946Z,17.60
2018-09-15T17:40:16.641Z,17.34
2018-09-15T17:42:45.161Z,17.04
2018-09-15T17:45:13.685Z,16.79
2018-09-15T17:47:42.232Z,16.48
2018-09-15T17:50:10.741Z,16.59
2018-09-15T17:52:40.065Z,16.33
2018-09-15T17:55:08.577Z,16.14
2018-09-15T17:57:37.203Z,16.06
2018-09-15T18:00:06.296Z,16.15
2018-09-15T18:02:35.621Z,16.10
2018-09-15T18:05:04.277Z,15.97
2018-09-15T18:07:32.758Z,16.35
2018-09-15T18:10:02.126Z,16.22
2018-09-15T18:12:30.657Z,15.90
2018-09-15T18:14:59.397Z,15.63
2018-09-15T18:17:27.971Z,15.52
2018-09-15T18:19:57.478Z,15.59
2018-09-15T18:22:26.207Z,15.55
2018-09-15T18:24:54.802Z,15.61
2018-09-15T18:27:23.323Z,15.62
2018-09-15T18:29:51.830Z,15.62
2018-09-15T18:32:20.367Z,15.55
2018-09-15T18:34:49.790Z,15.54
2018-09-15T18:37:18.308Z,15.36
2018-09-15T18:39:48.220Z,15.16
2018-09-15T18:42:16.667Z,15.10
2018-09-15T18:44:45.268Z,15.07
2018-09-15T18:47:13.807Z,14.92
2018-09-15T18:49:42.390Z,14.75
2018-09-15T18:52:10.974Z,14.74
2018-09-15T18:54:39.709Z,14.76
2018-09-15T18:57:08.375Z,14.62
2018-09-15T18:59:37.879Z,14.50
2018-09-15T19:02:06.580Z,14.39
2018-09-15T19:04:35.072Z,14.29
2018-09-15T19:07:03.586Z,14.24
2018-09-15T19:09:32.050Z,14.22
2018-09-15T19:12:00.549Z,14.23
2018-09-15T19:14:29.050Z,14.24
2018-09-15T19:16:57.588Z,14.26
2018-09-15T19:19:26.053Z,14.13
2018-09-15T19:21:55.329Z,14.16
2018-09-15T19:24:23.779Z,13.98
2018-09-15T19:26:52.348Z,14.00
2018-09-15T19:29:20.788Z,13.94
2018-09-15T19:31:49.971Z,13.78
2018-09-15T19:34:18.443Z,13.94
2018-09-15T19:36:46.886Z,13.79
2018-09-15T19:39:15.530Z,13.64
2018-09-15T19:41:43.980Z,13.61
2018-09-15T19:44:13.053Z,13.64
2018-09-15T19:46:41.516Z,13.66
2018-09-15T19:49:10.600Z,13.60
2018-09-15T19:51:39.323Z,13.49
2018-09-15T19:54:07.854Z,13.44
2018-09-15T19:56:36.375Z,13.31
2018-09-15T19:59:04.916Z,13.30
2018-09-15T20:01:33.975Z,13.23
2018-09-15T20:04:02.512Z,13.21
2018-09-15T20:06:31.150Z,13.27
2018-09-15T20:08:59.681Z,13.19
2018-09-15T20:11:28.145Z,13.03
2018-09-15T20:13:58.355Z,12.85
2018-09-15T20:16:25.673Z,12.80
2018-09-15T20:18:53.002Z,12.69
2018-09-15T20:21:20.283Z,12.73
2018-09-15T20:23:49.496Z,12.73
2018-09-15T20:26:18.090Z,12.72
2018-09-15T20:28:46.659Z,12.79
2018-09-15T20:31:15.198Z,12.68
2018-09-15T20:33:43.896Z,12.67
2018-09-15T20:36:12.417Z,12.62
2018-09-15T20:38:41.093Z,12.47
2018-09-15T20:41:09.657Z,12.36
2018-09-15T20:43:38.269Z,12.29
2018-09-15T20:46:06.809Z,12.39
2018-09-15T20:48:35.404Z,12.26
2018-09-15T20:51:03.891Z,12.04
2018-09-15T20:53:33.162Z,11.98
2018-09-15T20:56:01.617Z,11.87
2018-09-15T20:58:30.121Z,11.94
2018-09-15T21:00:58.686Z,11.95
2018-09-15T21:03:27.188Z,12.00
2018-09-15T21:05:56.708Z,11.74
2018-09-15T21:08:25.785Z,11.76
2018-09-15T21:10:54.248Z,11.88
2018-09-15T21:13:22.874Z,12.01
2018-09-15T21:15:51.450Z,12.08
2018-09-15T21:18:19.924Z,11.95
2018-09-15T21:20:48.527Z,12.00
2018-09-15T21:23:17.318Z,12.02
2018-09-15T21:25:45.740Z,12.10
2018-09-15T21:28:14.719Z,12.11
2018-09-15T21:30:43.633Z,12.04
2018-09-15T21:33:12.126Z,12.09
2018-09-15T21:35:40.590Z,11.88
2018-09-15T21:38:09.061Z,11.51
2018-09-15T21:40:38.629Z,11.49
2018-09-15T21:43:07.132Z,11.32
2018-09-15T21:45:36.019Z,11.23
2018-09-15T21:48:04.503Z,11.42
2018-09-15T21:50:32.965Z,11.44
2018-09-15T21:53:01.487Z,11.38
2018-09-15T21:55:31.186Z,11.32
2018-09-15T21:58:00.335Z,11.12
2018-09-15T22:00:28.868Z,11.11
2018-09-15T22:02:57.420Z,11.28
2018-09-15T22:05:25.875Z,11.40
2018-09-15T22:07:54.859Z,11.46
2018-09-15T22:10:24.695Z,11.24
2018-09-15T22:12:53.356Z,11.40
2018-09-15T22:15:28.654Z,11.49
2018-09-15T22:17:58.780Z,11.47
2018-09-15T22:20:27.825Z,11.18
2018-09-15T22:22:56.847Z,10.99
2018-09-15T22:25:25.408Z,10.94
2018-09-15T22:27:54.089Z,11.17
2018-09-15T22:30:22.759Z,11.23
2018-09-15T22:32:51.879Z,11.08
2018-09-15T22:35:20.384Z,11.29
2018-09-15T22:37:48.979Z,11.28
2018-09-15T22:40:20.404Z,11.26
2018-09-15T22:42:48.961Z,11.20
2018-09-15T22:45:18.493Z,11.11
2018-09-15T22:47:46.952Z,11.11
2018-09-15T22:50:16.218Z,11.19
2018-09-15T22:52:44.880Z,11.24
2018-09-15T22:55:13.451Z,11.19
2018-09-15T22:57:42.144Z,10.95
2018-09-15T23:00:10.692Z,10.84
2018-09-15T23:02:39.718Z,11.13
2018-09-15T23:05:08.453Z,11.11
2018-09-15T23:07:37.024Z,11.08
2018-09-15T23:10:07.720Z,10.96
2018-09-15T23:12:36.397Z,10.93
2018-09-15T23:15:05.852Z,10.64
2018-09-15T23:17:34.484Z,10.73
2018-09-15T23:20:02.976Z,10.70
2018-09-15T23:22:31.386Z,10.81
2018-09-15T23:25:00.457Z,10.83
2018-09-15T23:27:28.959Z,10.80
2018-09-15T23:29:58.909Z,10.76
2018-09-15T23:32:27.419Z,10.82
2018-09-15T23:34:56.052Z,10.60
2018-09-15T23:37:24.515Z,10.70
2018-09-15T23:39:53.068Z,10.59
2018-09-15T23:42:21.535Z,9.98
2018-09-15T23:44:50.044Z,10.33
2018-09-15T23:47:18.619Z,10.53
2018-09-15T23:49:47.188Z,10.59
2018-09-15T23:52:16.309Z,10.43
2018-09-15T23:54:44.863Z,10.17
2018-09-15T23:57:13.328Z,10.19
2018-09-15T23:59:41.833Z,10.24
